sensor_id;sensor_type;location;lat;lon;timestamp;temperature;humidity
44111;DHT22;29774;52.664;5.074;2023-01-19T00:00:30;3.60;89.60
44111;DHT22;29774;52.664;5.074;2023-01-19T00:02:55;3.50;89.60
44111;DHT22;29774;52.664;5.074;2023-01-19T00:05:21;3.50;89.70
44111;DHT22;29774;52.664;5.074;2023-01-19T00:07:46;3.40;90.00
44111;DHT22;29774;52.664;5.074;2023-01-19T00:10:12;3.50;90.20
44111;DHT22;29774;52.664;5.074;2023-01-19T00:12:38;3.50;90.40
44111;DHT22;29774;52.664;5.074;2023-01-19T00:15:04;3.60;90.50
44111;DHT22;29774;52.664;5.074;2023-01-19T00:17:30;3.50;90.50
44111;DHT22;29774;52.664;5.074;2023-01-19T00:19:55;3.50;90.70
44111;DHT22;29774;52.664;5.074;2023-01-19T00:22:21;3.60;90.80
44111;DHT22;29774;52.664;5.074;2023-01-19T00:24:46;3.60;90.70
44111;DHT22;29774;52.664;5.074;2023-01-19T00:27:12;3.50;90.60
44111;DHT22;29774;52.664;5.074;2023-01-19T00:29:38;3.50;90.60
44111;DHT22;29774;52.664;5.074;2023-01-19T00:32:04;3.50;90.70
44111;DHT22;29774;52.664;5.074;2023-01-19T00:34:30;3.60;90.80
44111;DHT22;29774;52.664;5.074;2023-01-19T00:37:02;3.60;90.90
44111;DHT22;29774;52.664;5.074;2023-01-19T00:39:28;3.70;91.00
44111;DHT22;29774;52.664;5.074;2023-01-19T00:41:53;3.80;91.10
44111;DHT22;29774;52.664;5.074;2023-01-19T00:44:37;4.00;91.20
44111;DHT22;29774;52.664;5.074;2023-01-19T00:47:03;4.00;91.30
44111;DHT22;29774;52.664;5.074;2023-01-19T00:49:30;3.90;91.50
44111;DHT22;29774;52.664;5.074;2023-01-19T00:51:56;4.20;91.40
44111;DHT22;29774;52.664;5.074;2023-01-19T00:54:21;4.10;91.30
44111;DHT22;29774;52.664;5.074;2023-01-19T00:56:47;4.00;91.30
44111;DHT22;29774;52.664;5.074;2023-01-19T00:59:13;3.80;91.30
44111;DHT22;29774;52.664;5.074;2023-01-19T01:01:38;3.80;91.40
44111;DHT22;29774;52.664;5.074;2023-01-19T01:04:04;3.80;91.50
44111;DHT22;29774;52.664;5.074;2023-01-19T01:06:30;3.80;91.60
44111;DHT22;29774;52.664;5.074;2023-01-19T01:08:55;3.80;91.70
44111;DHT22;29774;52.664;5.074;2023-01-19T01:11:21;3.80;91.80
44111;DHT22;29774;52.664;5.074;2023-01-19T01:13:46;3.90;91.90
44111;DHT22;29774;52.664;5.074;2023-01-19T01:16:14;4.20;92.00
44111;DHT22;29774;52.664;5.074;2023-01-19T01:18:41;4.50;91.70
44111;DHT22;29774;52.664;5.074;2023-01-19T01:21:07;4.50;91.60
44111;DHT22;29774;52.664;5.074;2023-01-19T01:23:33;4.70;91.50
44111;DHT22;29774;52.664;5.074;2023-01-19T01:25:59;4.70;91.30
44111;DHT22;29774;52.664;5.074;2023-01-19T01:28:25;4.80;91.20
44111;DHT22;29774;52.664;5.074;2023-01-19T01:30:55;5.10;90.50
44111;DHT22;29774;52.664;5.074;2023-01-19T01:33:21;5.20;90.10
44111;DHT22;29774;52.664;5.074;2023-01-19T01:35:48;5.20;89.70
44111;DHT22;29774;52.664;5.074;2023-01-19T01:38:14;5.30;89.20
44111;DHT22;29774;52.664;5.074;2023-01-19T01:40:41;5.20;88.80
44111;DHT22;29774;52.664;5.074;2023-01-19T01:43:14;5.20;88.70
44111;DHT22;29774;52.664;5.074;2023-01-19T01:45:40;5.20;88.60
44111;DHT22;29774;52.664;5.074;2023-01-19T01:48:27;5.20;88.20
44111;DHT22;29774;52.664;5.074;2023-01-19T01:51:25;5.50;88.10
44111;DHT22;29774;52.664;5.074;2023-01-19T01:54:39;5.50;86.90
44111;DHT22;29774;52.664;5.074;2023-01-19T01:57:02;5.60;85.90
44111;DHT22;29774;52.664;5.074;2023-01-19T01:59:33;5.70;85.10
44111;DHT22;29774;52.664;5.074;2023-01-19T02:02:24;5.70;84.50
44111;DHT22;29774;52.664;5.074;2023-01-19T02:05:29;5.60;84.00
44111;DHT22;29774;52.664;5.074;2023-01-19T02:08:14;5.50;84.50
44111;DHT22;29774;52.664;5.074;2023-01-19T02:11:02;5.30;84.60
44111;DHT22;29774;52.664;5.074;2023-01-19T02:13:46;5.40;85.00
44111;DHT22;29774;52.664;5.074;2023-01-19T02:16:13;5.40;84.60
44111;DHT22;29774;52.664;5.074;2023-01-19T02:18:40;5.40;84.70
44111;DHT22;29774;52.664;5.074;2023-01-19T02:21:10;5.50;84.40
44111;DHT22;29774;52.664;5.074;2023-01-19T02:23:44;5.30;84.10
44111;DHT22;29774;52.664;5.074;2023-01-19T02:26:14;5.10;84.00
44111;DHT22;29774;52.664;5.074;2023-01-19T02:28:43;4.90;84.80
44111;DHT22;29774;52.664;5.074;2023-01-19T02:31:10;4.90;85.50
44111;DHT22;29774;52.664;5.074;2023-01-19T02:33:36;5.60;85.70
44111;DHT22;29774;52.664;5.074;2023-01-19T02:36:03;5.70;84.70
44111;DHT22;29774;52.664;5.074;2023-01-19T02:38:29;5.70;84.00
44111;DHT22;29774;52.664;5.074;2023-01-19T02:40:57;5.60;83.90
44111;DHT22;29774;52.664;5.074;2023-01-19T02:43:25;5.40;84.20
44111;DHT22;29774;52.664;5.074;2023-01-19T02:45:52;5.10;85.00
44111;DHT22;29774;52.664;5.074;2023-01-19T02:48:19;5.00;85.60
44111;DHT22;29774;52.664;5.074;2023-01-19T02:50:47;4.90;86.10
44111;DHT22;29774;52.664;5.074;2023-01-19T02:59:15;4.40;87.80
44111;DHT22;29774;52.664;5.074;2023-01-19T03:07:33;4.20;89.00
44111;DHT22;29774;52.664;5.074;2023-01-19T03:10:04;4.10;89.30
44111;DHT22;29774;52.664;5.074;2023-01-19T03:15:24;4.00;89.70
44111;DHT22;29774;52.664;5.074;2023-01-19T03:17:52;3.90;89.90
44111;DHT22;29774;52.664;5.074;2023-01-19T03:20:21;3.90;90.10
44111;DHT22;29774;52.664;5.074;2023-01-19T03:22:52;3.90;90.20
44111;DHT22;29774;52.664;5.074;2023-01-19T03:25:21;3.80;90.30
44111;DHT22;29774;52.664;5.074;2023-01-19T03:27:49;3.80;90.40
44111;DHT22;29774;52.664;5.074;2023-01-19T03:30:21;3.90;90.50
44111;DHT22;29774;52.664;5.074;2023-01-19T03:32:51;3.90;90.50
44111;DHT22;29774;52.664;5.074;2023-01-19T03:35:21;4.20;90.50
44111;DHT22;29774;52.664;5.074;2023-01-19T03:37:50;4.30;90.10
44111;DHT22;29774;52.664;5.074;2023-01-19T03:40:17;4.40;89.80
44111;DHT22;29774;52.664;5.074;2023-01-19T03:42:43;4.40;89.50
44111;DHT22;29774;52.664;5.074;2023-01-19T03:45:11;4.60;89.00
44111;DHT22;29774;52.664;5.074;2023-01-19T03:47:37;4.60;88.70
44111;DHT22;29774;52.664;5.074;2023-01-19T03:50:06;4.50;88.30
44111;DHT22;29774;52.664;5.074;2023-01-19T03:52:33;4.70;88.10
44111;DHT22;29774;52.664;5.074;2023-01-19T03:55:00;4.70;87.70
44111;DHT22;29774;52.664;5.074;2023-01-19T03:57:26;4.70;87.50
44111;DHT22;29774;52.664;5.074;2023-01-19T03:59:52;4.80;87.30
44111;DHT22;29774;52.664;5.074;2023-01-19T04:02:18;4.70;87.10
44111;DHT22;29774;52.664;5.074;2023-01-19T04:04:43;4.70;86.80
44111;DHT22;29774;52.664;5.074;2023-01-19T04:07:09;4.70;86.80
44111;DHT22;29774;52.664;5.074;2023-01-19T04:09:35;4.60;86.70
44111;DHT22;29774;52.664;5.074;2023-01-19T04:12:01;4.50;86.60
44111;DHT22;29774;52.664;5.074;2023-01-19T04:14:28;4.40;86.70
44111;DHT22;29774;52.664;5.074;2023-01-19T04:16:53;4.70;86.50
44111;DHT22;29774;52.664;5.074;2023-01-19T04:19:19;4.70;86.20
44111;DHT22;29774;52.664;5.074;2023-01-19T04:21:47;4.70;85.70
44111;DHT22;29774;52.664;5.074;2023-01-19T04:24:13;4.60;85.50
44111;DHT22;29774;52.664;5.074;2023-01-19T04:26:39;4.60;85.60
44111;DHT22;29774;52.664;5.074;2023-01-19T04:29:05;4.60;85.30
44111;DHT22;29774;52.664;5.074;2023-01-19T04:31:30;4.70;85.20
44111;DHT22;29774;52.664;5.074;2023-01-19T04:33:56;4.70;84.80
44111;DHT22;29774;52.664;5.074;2023-01-19T04:36:22;4.70;84.50
44111;DHT22;29774;52.664;5.074;2023-01-19T04:38:47;4.70;84.40
44111;DHT22;29774;52.664;5.074;2023-01-19T04:41:13;4.60;84.20
44111;DHT22;29774;52.664;5.074;2023-01-19T04:43:39;4.70;84.20
44111;DHT22;29774;52.664;5.074;2023-01-19T04:46:05;4.50;84.20
44111;DHT22;29774;52.664;5.074;2023-01-19T04:48:31;4.40;84.50
44111;DHT22;29774;52.664;5.074;2023-01-19T04:50:57;4.40;84.90
44111;DHT22;29774;52.664;5.074;2023-01-19T04:53:22;4.60;85.10
44111;DHT22;29774;52.664;5.074;2023-01-19T04:55:52;4.90;84.90
44111;DHT22;29774;52.664;5.074;2023-01-19T04:58:18;5.00;84.70
44111;DHT22;29774;52.664;5.074;2023-01-19T05:00:43;4.90;84.60
44111;DHT22;29774;52.664;5.074;2023-01-19T05:03:09;5.00;84.70
44111;DHT22;29774;52.664;5.074;2023-01-19T05:05:35;5.00;84.50
44111;DHT22;29774;52.664;5.074;2023-01-19T05:08:00;4.90;84.40
44111;DHT22;29774;52.664;5.074;2023-01-19T05:10:26;4.70;84.70
44111;DHT22;29774;52.664;5.074;2023-01-19T05:12:51;4.60;85.00
44111;DHT22;29774;52.664;5.074;2023-01-19T05:15:17;4.60;85.00
44111;DHT22;29774;52.664;5.074;2023-01-19T05:17:43;4.80;84.90
44111;DHT22;29774;52.664;5.074;2023-01-19T05:20:10;4.80;84.50
44111;DHT22;29774;52.664;5.074;2023-01-19T05:22:36;4.80;84.30
44111;DHT22;29774;52.664;5.074;2023-01-19T05:25:04;4.70;84.10
44111;DHT22;29774;52.664;5.074;2023-01-19T05:27:30;4.70;84.10
44111;DHT22;29774;52.664;5.074;2023-01-19T05:29:55;4.60;83.70
44111;DHT22;29774;52.664;5.074;2023-01-19T05:32:21;4.40;83.80
44111;DHT22;29774;52.664;5.074;2023-01-19T05:34:47;4.40;83.80
44111;DHT22;29774;52.664;5.074;2023-01-19T05:37:12;4.30;83.90
44111;DHT22;29774;52.664;5.074;2023-01-19T05:39:38;4.30;83.70
44111;DHT22;29774;52.664;5.074;2023-01-19T05:42:04;4.30;83.60
44111;DHT22;29774;52.664;5.074;2023-01-19T05:44:29;4.40;83.60
44111;DHT22;29774;52.664;5.074;2023-01-19T05:46:55;4.30;83.50
44111;DHT22;29774;52.664;5.074;2023-01-19T05:49:21;4.30;83.40
44111;DHT22;29774;52.664;5.074;2023-01-19T05:51:46;4.30;83.20
44111;DHT22;29774;52.664;5.074;2023-01-19T05:54:13;4.40;83.10
44111;DHT22;29774;52.664;5.074;2023-01-19T05:56:42;4.30;83.00
44111;DHT22;29774;52.664;5.074;2023-01-19T05:59:08;4.30;83.10
44111;DHT22;29774;52.664;5.074;2023-01-19T06:01:34;4.20;83.10
44111;DHT22;29774;52.664;5.074;2023-01-19T06:04:01;4.10;83.20
44111;DHT22;29774;52.664;5.074;2023-01-19T06:06:27;4.00;83.50
44111;DHT22;29774;52.664;5.074;2023-01-19T06:08:52;4.10;83.50
44111;DHT22;29774;52.664;5.074;2023-01-19T06:11:18;4.00;83.40
44111;DHT22;29774;52.664;5.074;2023-01-19T06:13:44;3.90;83.60
44111;DHT22;29774;52.664;5.074;2023-01-19T06:16:11;3.70;83.90
44111;DHT22;29774;52.664;5.074;2023-01-19T06:18:36;3.70;84.10
44111;DHT22;29774;52.664;5.074;2023-01-19T06:21:06;3.60;84.30
44111;DHT22;29774;52.664;5.074;2023-01-19T06:23:33;3.50;84.40
44111;DHT22;29774;52.664;5.074;2023-01-19T06:25:59;3.50;84.60
44111;DHT22;29774;52.664;5.074;2023-01-19T06:28:25;3.50;84.50
44111;DHT22;29774;52.664;5.074;2023-01-19T06:30:52;3.60;84.40
44111;DHT22;29774;52.664;5.074;2023-01-19T06:33:17;3.50;84.20
44111;DHT22;29774;52.664;5.074;2023-01-19T06:35:48;3.50;84.10
44111;DHT22;29774;52.664;5.074;2023-01-19T06:38:14;3.70;84.00
44111;DHT22;29774;52.664;5.074;2023-01-19T06:40:41;3.90;84.30
44111;DHT22;29774;52.664;5.074;2023-01-19T06:43:07;4.50;84.60
44111;DHT22;29774;52.664;5.074;2023-01-19T06:45:33;4.70;84.00
44111;DHT22;29774;52.664;5.074;2023-01-19T06:47:59;4.60;83.50
44111;DHT22;29774;52.664;5.074;2023-01-19T06:50:25;4.40;83.70
44111;DHT22;29774;52.664;5.074;2023-01-19T06:52:51;4.40;84.10
44111;DHT22;29774;52.664;5.074;2023-01-19T06:55:17;4.20;84.20
44111;DHT22;29774;52.664;5.074;2023-01-19T06:57:43;3.90;84.50
44111;DHT22;29774;52.664;5.074;2023-01-19T07:00:10;3.80;84.80
44111;DHT22;29774;52.664;5.074;2023-01-19T07:02:37;3.70;85.20
44111;DHT22;29774;52.664;5.074;2023-01-19T07:05:05;3.60;85.40
44111;DHT22;29774;52.664;5.074;2023-01-19T07:07:31;3.60;85.40
44111;DHT22;29774;52.664;5.074;2023-01-19T07:09:57;3.60;85.50
44111;DHT22;29774;52.664;5.074;2023-01-19T07:12:23;3.60;85.40
44111;DHT22;29774;52.664;5.074;2023-01-19T07:14:49;3.40;85.20
44111;DHT22;29774;52.664;5.074;2023-01-19T07:17:14;3.40;85.70
44111;DHT22;29774;52.664;5.074;2023-01-19T07:19:40;3.50;86.10
44111;DHT22;29774;52.664;5.074;2023-01-19T07:22:06;4.00;86.30
44111;DHT22;29774;52.664;5.074;2023-01-19T07:24:31;4.30;86.10
44111;DHT22;29774;52.664;5.074;2023-01-19T07:26:58;4.30;85.80
44111;DHT22;29774;52.664;5.074;2023-01-19T07:29:24;4.20;85.60
44111;DHT22;29774;52.664;5.074;2023-01-19T07:31:50;4.10;85.40
44111;DHT22;29774;52.664;5.074;2023-01-19T07:34:19;3.90;85.50
44111;DHT22;29774;52.664;5.074;2023-01-19T07:36:45;3.70;85.40
44111;DHT22;29774;52.664;5.074;2023-01-19T07:39:11;3.60;85.60
44111;DHT22;29774;52.664;5.074;2023-01-19T07:41:37;3.40;86.00
44111;DHT22;29774;52.664;5.074;2023-01-19T07:44:03;3.30;86.30
44111;DHT22;29774;52.664;5.074;2023-01-19T07:46:28;3.30;86.50
44111;DHT22;29774;52.664;5.074;2023-01-19T07:48:54;3.30;86.80
44111;DHT22;29774;52.664;5.074;2023-01-19T07:51:20;3.30;87.00
44111;DHT22;29774;52.664;5.074;2023-01-19T07:53:49;3.20;87.10
44111;DHT22;29774;52.664;5.074;2023-01-19T07:56:15;3.20;87.10
44111;DHT22;29774;52.664;5.074;2023-01-19T07:58:41;3.20;87.10
44111;DHT22;29774;52.664;5.074;2023-01-19T08:01:08;3.00;87.10
44111;DHT22;29774;52.664;5.074;2023-01-19T08:03:34;2.90;86.90
44111;DHT22;29774;52.664;5.074;2023-01-19T08:06:00;2.70;86.90
44111;DHT22;29774;52.664;5.074;2023-01-19T08:08:28;2.60;87.30
44111;DHT22;29774;52.664;5.074;2023-01-19T08:10:54;2.60;87.40
44111;DHT22;29774;52.664;5.074;2023-01-19T08:13:20;2.60;87.70
44111;DHT22;29774;52.664;5.074;2023-01-19T08:15:50;2.60;87.60
44111;DHT22;29774;52.664;5.074;2023-01-19T08:18:16;2.50;87.70
44111;DHT22;29774;52.664;5.074;2023-01-19T08:20:41;2.40;87.60
44111;DHT22;29774;52.664;5.074;2023-01-19T08:23:09;2.40;87.60
44111;DHT22;29774;52.664;5.074;2023-01-19T08:25:40;2.30;87.60
44111;DHT22;29774;52.664;5.074;2023-01-19T08:28:11;2.30;87.60
44111;DHT22;29774;52.664;5.074;2023-01-19T08:30:37;2.40;88.00
44111;DHT22;29774;52.664;5.074;2023-01-19T08:33:04;2.50;88.60
44111;DHT22;29774;52.664;5.074;2023-01-19T08:35:37;2.70;89.00
44111;DHT22;29774;52.664;5.074;2023-01-19T08:38:03;2.80;89.20
44111;DHT22;29774;52.664;5.074;2023-01-19T08:40:32;2.80;89.10
44111;DHT22;29774;52.664;5.074;2023-01-19T08:43:09;3.00;89.00
44111;DHT22;29774;52.664;5.074;2023-01-19T08:45:36;3.10;88.60
44111;DHT22;29774;52.664;5.074;2023-01-19T08:48:04;3.20;88.20
44111;DHT22;29774;52.664;5.074;2023-01-19T08:50:32;3.30;87.50
44111;DHT22;29774;52.664;5.074;2023-01-19T08:53:00;3.40;86.70
44111;DHT22;29774;52.664;5.074;2023-01-19T08:55:27;3.50;85.80
44111;DHT22;29774;52.664;5.074;2023-01-19T08:57:54;3.60;85.10
44111;DHT22;29774;52.664;5.074;2023-01-19T09:00:21;3.70;84.60
44111;DHT22;29774;52.664;5.074;2023-01-19T09:02:47;3.80;84.30
44111;DHT22;29774;52.664;5.074;2023-01-19T09:05:13;4.00;83.60
44111;DHT22;29774;52.664;5.074;2023-01-19T09:07:39;4.00;82.60
44111;DHT22;29774;52.664;5.074;2023-01-19T09:10:06;3.90;81.50
44111;DHT22;29774;52.664;5.074;2023-01-19T09:12:32;3.70;81.00
44111;DHT22;29774;52.664;5.074;2023-01-19T09:14:58;3.70;81.30
44111;DHT22;29774;52.664;5.074;2023-01-19T09:17:24;3.90;82.10
44111;DHT22;29774;52.664;5.074;2023-01-19T09:19:49;4.10;82.20
44111;DHT22;29774;52.664;5.074;2023-01-19T09:22:15;4.20;82.10
44111;DHT22;29774;52.664;5.074;2023-01-19T09:24:40;4.40;81.40
44111;DHT22;29774;52.664;5.074;2023-01-19T09:27:06;4.50;80.40
44111;DHT22;29774;52.664;5.074;2023-01-19T09:29:32;4.70;79.90
44111;DHT22;29774;52.664;5.074;2023-01-19T09:31:58;4.80;79.50
44111;DHT22;29774;52.664;5.074;2023-01-19T09:34:23;5.00;79.00
44111;DHT22;29774;52.664;5.074;2023-01-19T09:36:53;5.10;78.60
44111;DHT22;29774;52.664;5.074;2023-01-19T09:39:19;5.20;78.60
44111;DHT22;29774;52.664;5.074;2023-01-19T09:41:48;5.40;78.00
44111;DHT22;29774;52.664;5.074;2023-01-19T09:44:24;5.50;77.40
44111;DHT22;29774;52.664;5.074;2023-01-19T09:46:52;5.70;77.10
44111;DHT22;29774;52.664;5.074;2023-01-19T09:49:37;5.80;76.90
44111;DHT22;29774;52.664;5.074;2023-01-19T09:52:06;6.00;76.40
44111;DHT22;29774;52.664;5.074;2023-01-19T09:54:46;6.10;75.50
44111;DHT22;29774;52.664;5.074;2023-01-19T09:57:14;6.30;75.80
44111;DHT22;29774;52.664;5.074;2023-01-19T09:59:40;6.40;74.80
44111;DHT22;29774;52.664;5.074;2023-01-19T10:05:33;6.60;75.10
44111;DHT22;29774;52.664;5.074;2023-01-19T10:10:35;6.90;74.20
44111;DHT22;29774;52.664;5.074;2023-01-19T10:20:35;7.20;73.70
44111;DHT22;29774;52.664;5.074;2023-01-19T10:23:18;7.40;73.80
44111;DHT22;29774;52.664;5.074;2023-01-19T10:25:46;7.50;73.20
44111;DHT22;29774;52.664;5.074;2023-01-19T10:28:13;7.40;73.30
44111;DHT22;29774;52.664;5.074;2023-01-19T10:30:41;7.50;73.20
44111;DHT22;29774;52.664;5.074;2023-01-19T10:33:11;7.70;72.60
44111;DHT22;29774;52.664;5.074;2023-01-19T10:35:37;7.70;72.50
44111;DHT22;29774;52.664;5.074;2023-01-19T10:38:03;7.70;71.80
44111;DHT22;29774;52.664;5.074;2023-01-19T10:40:32;7.70;72.20
44111;DHT22;29774;52.664;5.074;2023-01-19T10:42:58;7.80;71.00
44111;DHT22;29774;52.664;5.074;2023-01-19T10:45:27;7.90;72.10
44111;DHT22;29774;52.664;5.074;2023-01-19T10:47:59;7.90;72.60
44111;DHT22;29774;52.664;5.074;2023-01-19T10:50:29;8.00;74.00
44111;DHT22;29774;52.664;5.074;2023-01-19T10:52:57;8.00;73.40
44111;DHT22;29774;52.664;5.074;2023-01-19T10:57:55;7.70;72.20
44111;DHT22;29774;52.664;5.074;2023-01-19T11:00:31;7.50;73.20
44111;DHT22;29774;52.664;5.074;2023-01-19T11:02:57;7.50;73.10
44111;DHT22;29774;52.664;5.074;2023-01-19T11:05:25;7.50;73.90
44111;DHT22;29774;52.664;5.074;2023-01-19T11:07:52;7.60;73.80
44111;DHT22;29774;52.664;5.074;2023-01-19T11:10:29;7.60;74.70
44111;DHT22;29774;52.664;5.074;2023-01-19T11:13:04;7.70;75.00
44111;DHT22;29774;52.664;5.074;2023-01-19T11:15:45;7.70;74.50
44111;DHT22;29774;52.664;5.074;2023-01-19T11:20:53;7.60;73.60
44111;DHT22;29774;52.664;5.074;2023-01-19T11:23:51;7.50;73.90
44111;DHT22;29774;52.664;5.074;2023-01-19T11:28:55;7.60;73.70
44111;DHT22;29774;52.664;5.074;2023-01-19T11:33:57;7.70;74.30
44111;DHT22;29774;52.664;5.074;2023-01-19T11:36:28;7.80;74.30
44111;DHT22;29774;52.664;5.074;2023-01-19T11:38:55;8.00;74.60
44111;DHT22;29774;52.664;5.074;2023-01-19T11:41:28;8.00;74.70
44111;DHT22;29774;52.664;5.074;2023-01-19T11:43:57;8.00;73.40
44111;DHT22;29774;52.664;5.074;2023-01-19T11:46:30;8.00;73.80
44111;DHT22;29774;52.664;5.074;2023-01-19T11:49:14;7.90;74.20
44111;DHT22;29774;52.664;5.074;2023-01-19T11:51:57;7.90;73.60
44111;DHT22;29774;52.664;5.074;2023-01-19T11:54:30;7.80;73.40
44111;DHT22;29774;52.664;5.074;2023-01-19T11:56:58;7.60;73.00
44111;DHT22;29774;52.664;5.074;2023-01-19T11:59:24;7.40;72.90
44111;DHT22;29774;52.664;5.074;2023-01-19T12:01:53;7.30;73.70
44111;DHT22;29774;52.664;5.074;2023-01-19T12:04:31;7.20;73.00
44111;DHT22;29774;52.664;5.074;2023-01-19T12:07:05;7.10;72.90
44111;DHT22;29774;52.664;5.074;2023-01-19T12:09:35;6.90;73.60
44111;DHT22;29774;52.664;5.074;2023-01-19T12:12:12;6.90;73.40
44111;DHT22;29774;52.664;5.074;2023-01-19T12:15:01;6.80;73.60
44111;DHT22;29774;52.664;5.074;2023-01-19T12:17:35;6.80;73.50
44111;DHT22;29774;52.664;5.074;2023-01-19T12:22:50;7.20;75.00
44111;DHT22;29774;52.664;5.074;2023-01-19T12:25:24;7.20;72.00
44111;DHT22;29774;52.664;5.074;2023-01-19T12:27:52;7.30;73.50
44111;DHT22;29774;52.664;5.074;2023-01-19T12:30:24;7.40;73.70
44111;DHT22;29774;52.664;5.074;2023-01-19T12:32:51;7.50;73.90
44111;DHT22;29774;52.664;5.074;2023-01-19T12:36:08;7.30;71.40
44111;DHT22;29774;52.664;5.074;2023-01-19T12:38:37;7.20;71.70
44111;DHT22;29774;52.664;5.074;2023-01-19T12:41:17;7.10;71.80
44111;DHT22;29774;52.664;5.074;2023-01-19T12:43:44;7.20;71.50
44111;DHT22;29774;52.664;5.074;2023-01-19T12:46:28;7.00;72.40
44111;DHT22;29774;52.664;5.074;2023-01-19T12:49:05;7.20;72.30
44111;DHT22;29774;52.664;5.074;2023-01-19T12:51:33;7.20;71.20
44111;DHT22;29774;52.664;5.074;2023-01-19T12:54:00;7.20;71.00
44111;DHT22;29774;52.664;5.074;2023-01-19T12:56:32;7.20;71.70
44111;DHT22;29774;52.664;5.074;2023-01-19T12:58:58;7.10;68.60
44111;DHT22;29774;52.664;5.074;2023-01-19T13:01:25;6.90;69.30
44111;DHT22;29774;52.664;5.074;2023-01-19T13:14:39;6.50;69.60
44111;DHT22;29774;52.664;5.074;2023-01-19T13:20:26;7.30;71.40
44111;DHT22;29774;52.664;5.074;2023-01-19T13:23:17;7.20;69.50
44111;DHT22;29774;52.664;5.074;2023-01-19T13:28:32;7.40;71.40
44111;DHT22;29774;52.664;5.074;2023-01-19T13:31:00;7.20;65.30
44111;DHT22;29774;52.664;5.074;2023-01-19T13:33:31;7.00;65.90
44111;DHT22;29774;52.664;5.074;2023-01-19T13:35:59;6.80;65.00
44111;DHT22;29774;52.664;5.074;2023-01-19T13:38:26;7.10;70.60
44111;DHT22;29774;52.664;5.074;2023-01-19T13:40:54;6.90;65.10
44111;DHT22;29774;52.664;5.074;2023-01-19T13:43:25;6.60;64.20
44111;DHT22;29774;52.664;5.074;2023-01-19T13:45:53;6.50;65.60
44111;DHT22;29774;52.664;5.074;2023-01-19T13:48:21;6.60;67.10
44111;DHT22;29774;52.664;5.074;2023-01-19T13:51:02;6.80;69.50
44111;DHT22;29774;52.664;5.074;2023-01-19T13:53:28;6.90;67.80
44111;DHT22;29774;52.664;5.074;2023-01-19T13:58:34;6.70;66.10
44111;DHT22;29774;52.664;5.074;2023-01-19T14:01:00;6.50;66.40
44111;DHT22;29774;52.664;5.074;2023-01-19T14:03:25;6.30;65.80
44111;DHT22;29774;52.664;5.074;2023-01-19T14:05:52;6.20;65.60
44111;DHT22;29774;52.664;5.074;2023-01-19T14:08:19;6.00;66.30
44111;DHT22;29774;52.664;5.074;2023-01-19T14:13:32;5.90;66.80
44111;DHT22;29774;52.664;5.074;2023-01-19T14:16:04;5.90;66.90
44111;DHT22;29774;52.664;5.074;2023-01-19T14:18:32;5.70;67.30
44111;DHT22;29774;52.664;5.074;2023-01-19T14:23:44;5.50;68.30
44111;DHT22;29774;52.664;5.074;2023-01-19T14:29:34;5.30;69.00
44111;DHT22;29774;52.664;5.074;2023-01-19T14:34:40;5.10;69.00
44111;DHT22;29774;52.664;5.074;2023-01-19T14:37:19;5.00;69.00
44111;DHT22;29774;52.664;5.074;2023-01-19T14:39:59;4.90;69.10
44111;DHT22;29774;52.664;5.074;2023-01-19T14:42:32;4.90;69.30
44111;DHT22;29774;52.664;5.074;2023-01-19T14:45:00;4.90;69.90
44111;DHT22;29774;52.664;5.074;2023-01-19T14:50:06;4.70;70.30
44111;DHT22;29774;52.664;5.074;2023-01-19T14:52:37;4.70;70.80
44111;DHT22;29774;52.664;5.074;2023-01-19T14:55:04;4.70;70.90
44111;DHT22;29774;52.664;5.074;2023-01-19T14:57:35;4.70;71.50
44111;DHT22;29774;52.664;5.074;2023-01-19T15:00:11;4.70;72.20
44111;DHT22;29774;52.664;5.074;2023-01-19T15:02:40;4.70;72.20
44111;DHT22;29774;52.664;5.074;2023-01-19T15:05:06;4.80;72.40
44111;DHT22;29774;52.664;5.074;2023-01-19T15:07:33;5.00;71.50
44111;DHT22;29774;52.664;5.074;2023-01-19T15:09:58;5.00;70.80
44111;DHT22;29774;52.664;5.074;2023-01-19T15:12:25;5.10;71.20
44111;DHT22;29774;52.664;5.074;2023-01-19T15:14:52;5.10;71.50
44111;DHT22;29774;52.664;5.074;2023-01-19T15:17:21;5.20;71.70
44111;DHT22;29774;52.664;5.074;2023-01-19T15:19:53;5.30;71.20
44111;DHT22;29774;52.664;5.074;2023-01-19T15:22:20;5.20;71.10
44111;DHT22;29774;52.664;5.074;2023-01-19T15:24:49;5.20;71.10
44111;DHT22;29774;52.664;5.074;2023-01-19T15:27:14;5.20;71.20
44111;DHT22;29774;52.664;5.074;2023-01-19T15:29:40;5.20;71.70
44111;DHT22;29774;52.664;5.074;2023-01-19T15:32:11;5.10;72.50
44111;DHT22;29774;52.664;5.074;2023-01-19T15:34:37;5.10;73.20
44111;DHT22;29774;52.664;5.074;2023-01-19T15:37:03;5.00;74.10
44111;DHT22;29774;52.664;5.074;2023-01-19T15:39:28;5.00;74.90
44111;DHT22;29774;52.664;5.074;2023-01-19T15:41:54;5.00;74.90
44111;DHT22;29774;52.664;5.074;2023-01-19T15:44:20;4.90;75.70
44111;DHT22;29774;52.664;5.074;2023-01-19T15:46:45;4.90;76.00
44111;DHT22;29774;52.664;5.074;2023-01-19T15:49:11;4.80;76.20
44111;DHT22;29774;52.664;5.074;2023-01-19T15:51:36;4.70;76.50
44111;DHT22;29774;52.664;5.074;2023-01-19T15:54:02;4.70;76.60
44111;DHT22;29774;52.664;5.074;2023-01-19T15:56:29;4.60;77.00
44111;DHT22;29774;52.664;5.074;2023-01-19T15:58:56;4.40;77.30
44111;DHT22;29774;52.664;5.074;2023-01-19T16:01:26;4.30;77.60
44111;DHT22;29774;52.664;5.074;2023-01-19T16:04:00;4.20;77.90
44111;DHT22;29774;52.664;5.074;2023-01-19T16:06:27;3.90;78.20
44111;DHT22;29774;52.664;5.074;2023-01-19T16:08:53;3.80;78.70
44111;DHT22;29774;52.664;5.074;2023-01-19T16:11:23;3.70;78.80
44111;DHT22;29774;52.664;5.074;2023-01-19T16:13:49;3.60;79.10
44111;DHT22;29774;52.664;5.074;2023-01-19T16:16:18;3.50;79.60
44111;DHT22;29774;52.664;5.074;2023-01-19T16:18:45;3.40;80.20
44111;DHT22;29774;52.664;5.074;2023-01-19T16:21:11;3.40;80.50
44111;DHT22;29774;52.664;5.074;2023-01-19T16:23:36;3.30;80.50
44111;DHT22;29774;52.664;5.074;2023-01-19T16:28:46;3.20;81.20
44111;DHT22;29774;52.664;5.074;2023-01-19T16:31:12;3.20;81.50
44111;DHT22;29774;52.664;5.074;2023-01-19T16:33:39;3.20;81.70
44111;DHT22;29774;52.664;5.074;2023-01-19T16:36:26;3.20;81.70
44111;DHT22;29774;52.664;5.074;2023-01-19T16:38:52;3.20;81.70
44111;DHT22;29774;52.664;5.074;2023-01-19T16:41:18;3.20;81.80
44111;DHT22;29774;52.664;5.074;2023-01-19T16:43:49;3.20;81.70
44111;DHT22;29774;52.664;5.074;2023-01-19T16:46:21;3.30;81.60
44111;DHT22;29774;52.664;5.074;2023-01-19T16:48:48;3.30;81.20
44111;DHT22;29774;52.664;5.074;2023-01-19T16:51:14;3.40;81.10
44111;DHT22;29774;52.664;5.074;2023-01-19T16:53:40;3.90;81.10
44111;DHT22;29774;52.664;5.074;2023-01-19T16:56:15;4.30;80.90
44111;DHT22;29774;52.664;5.074;2023-01-19T16:58:42;4.20;80.50
44111;DHT22;29774;52.664;5.074;2023-01-19T17:01:09;4.60;81.10
44111;DHT22;29774;52.664;5.074;2023-01-19T17:03:35;4.40;80.20
44111;DHT22;29774;52.664;5.074;2023-01-19T17:06:03;4.40;79.80
44111;DHT22;29774;52.664;5.074;2023-01-19T17:08:29;4.90;80.50
44111;DHT22;29774;52.664;5.074;2023-01-19T17:10:55;5.00;78.60